createdAt,value
2023-05-14T00:01:30.180Z,53.50
2023-05-14T00:03:57.200Z,51.40
2023-05-14T00:06:24.148Z,49.70
2023-05-14T00:08:50.940Z,60.08
2023-05-14T00:11:17.899Z,54.75
2023-05-14T00:13:44.803Z,57.63
2023-05-14T00:16:12.097Z,58.40
2023-05-14T00:18:39.097Z,57.60
2023-05-14T00:21:06.060Z,45.53
2023-05-14T00:23:33.108Z,55.00
2023-05-14T00:26:00.069Z,51.40
2023-05-14T00:28:26.985Z,55.00
2023-05-14T00:30:54.238Z,56.10
2023-05-14T00:33:21.069Z,56.58
2023-05-14T00:35:48.295Z,56.80
2023-05-14T00:38:19.217Z,55.67
2023-05-14T00:40:51.253Z,47.42
2023-05-14T00:43:22.726Z,51.00
2023-05-14T00:45:54.369Z,71.57
2023-05-14T00:48:22.045Z,52.45
2023-05-14T00:50:50.502Z,51.55
2023-05-14T00:53:19.332Z,57.17
2023-05-14T00:55:48.721Z,56.40
2023-05-14T00:58:16.004Z,47.25
2023-05-14T01:00:42.982Z,65.97
2023-05-14T01:03:10.293Z,63.33
2023-05-14T01:06:04.243Z,60.83
2023-05-14T01:08:58.942Z,53.20
2023-05-14T01:11:32.767Z,59.05
2023-05-14T01:14:35.996Z,58.17
2023-05-14T01:17:04.968Z,59.10
2023-05-14T01:19:40.083Z,55.38
2023-05-14T01:22:07.210Z,46.25
2023-05-14T01:24:34.292Z,49.08
2023-05-14T01:27:10.493Z,51.75
2023-05-14T01:29:40.652Z,50.50
2023-05-14T01:32:10.629Z,49.20
2023-05-14T01:34:39.006Z,59.88
2023-05-14T01:37:07.232Z,63.15
2023-05-14T01:39:37.849Z,55.60
2023-05-14T01:42:07.176Z,49.08
2023-05-14T01:44:34.550Z,57.13
2023-05-14T01:47:01.541Z,52.05
2023-05-14T01:49:28.501Z,51.25
2023-05-14T01:51:55.437Z,52.47
2023-05-14T01:54:22.320Z,63.50
2023-05-14T01:56:50.022Z,56.75
2023-05-14T01:59:17.056Z,49.60
2023-05-14T02:01:43.978Z,53.67
2023-05-14T02:04:10.962Z,58.97
2023-05-14T02:06:37.837Z,50.78
2023-05-14T02:09:05.562Z,54.58
2023-05-14T02:11:32.415Z,52.08
2023-05-14T02:13:59.328Z,52.65
2023-05-14T02:16:26.291Z,52.58
2023-05-14T02:18:53.362Z,59.17
2023-05-14T02:21:20.588Z,52.40
2023-05-14T02:23:49.670Z,49.17
2023-05-14T02:26:16.619Z,45.67
2023-05-14T02:28:44.442Z,47.17
2023-05-14T02:31:13.300Z,43.35
2023-05-14T02:33:42.016Z,57.20
2023-05-14T02:36:09.025Z,52.70
2023-05-14T02:38:35.990Z,53.38
2023-05-14T02:41:02.860Z,53.42
2023-05-14T02:43:29.852Z,43.78
2023-05-14T02:45:56.816Z,46.17
2023-05-14T02:48:23.802Z,49.33
2023-05-14T02:50:52.092Z,47.85
2023-05-14T02:53:19.137Z,45.38
2023-05-14T02:55:46.082Z,51.67
2023-05-14T02:58:13.149Z,49.00
2023-05-14T03:00:40.138Z,44.17
2023-05-14T03:03:07.681Z,50.58
2023-05-14T03:05:35.130Z,48.17
2023-05-14T03:08:02.328Z,56.67
2023-05-14T03:10:29.342Z,49.47
2023-05-14T03:12:56.390Z,46.20
2023-05-14T03:15:23.355Z,53.28
2023-05-14T03:17:50.602Z,52.05
2023-05-14T03:20:18.096Z,45.78
2023-05-14T03:22:45.324Z,51.20
2023-05-14T03:25:12.335Z,44.20
2023-05-14T03:27:39.338Z,55.08
2023-05-14T03:30:06.935Z,50.50
2023-05-14T03:32:33.916Z,44.63
2023-05-14T03:35:00.900Z,46.92
2023-05-14T03:37:27.866Z,45.13
2023-05-14T03:39:54.669Z,42.40
2023-05-14T03:42:21.502Z,45.67
2023-05-14T03:44:48.382Z,43.58
2023-05-14T03:47:15.728Z,48.95
2023-05-14T03:49:42.590Z,43.50
2023-05-14T03:52:11.807Z,46.53
2023-05-14T03:54:38.670Z,47.47
2023-05-14T03:57:05.702Z,41.42
2023-05-14T03:59:32.872Z,47.78
2023-05-14T04:01:59.958Z,38.70
2023-05-14T04:04:26.832Z,45.00
2023-05-14T04:06:53.785Z,51.17
2023-05-14T04:09:20.588Z,39.70
2023-05-14T04:11:47.513Z,46.55
2023-05-14T04:14:14.513Z,41.17
2023-05-14T04:16:42.696Z,53.22
2023-05-14T04:19:09.717Z,40.88
2023-05-14T04:21:36.651Z,46.53
2023-05-14T04:24:03.663Z,42.08
2023-05-14T04:26:30.546Z,42.55
2023-05-14T04:28:58.361Z,36.50
2023-05-14T04:31:25.296Z,37.85
2023-05-14T04:33:52.165Z,42.70
2023-05-14T04:36:19.109Z,34.25
2023-05-14T04:38:46.473Z,37.95
2023-05-14T04:41:13.348Z,30.85
2023-05-14T04:43:40.451Z,37.65
2023-05-14T04:46:07.461Z,33.22
2023-05-14T04:48:34.508Z,35.55
2023-05-14T04:51:01.451Z,35.88
2023-05-14T04:53:28.278Z,38.75
2023-05-14T04:55:55.379Z,39.90
2023-05-14T04:58:23.717Z,41.95
2023-05-14T05:00:50.949Z,37.03
2023-05-14T05:03:17.860Z,38.65
2023-05-14T05:05:44.816Z,38.28
2023-05-14T05:08:11.633Z,37.00
2023-05-14T05:10:38.536Z,35.60
2023-05-14T05:13:05.435Z,33.83
2023-05-14T05:15:32.350Z,36.47
2023-05-14T05:17:59.196Z,33.60
2023-05-14T05:20:28.195Z,29.67
2023-05-14T05:22:55.107Z,30.35
2023-05-14T05:25:22.056Z,32.90
2023-05-14T05:27:48.932Z,37.58
2023-05-14T05:30:16.177Z,34.40
2023-05-14T05:32:43.085Z,31.45
2023-05-14T05:35:10.329Z,27.20
2023-05-14T05:37:37.260Z,34.25
2023-05-14T05:40:05.986Z,28.08
2023-05-14T05:42:32.825Z,28.35
2023-05-14T05:44:59.717Z,31.35
2023-05-14T05:47:26.564Z,41.03
2023-05-14T05:49:54.350Z,37.72
2023-05-14T05:52:21.167Z,27.67
2023-05-14T05:54:48.019Z,33.17
2023-05-14T05:57:14.885Z,31.63
2023-05-14T05:59:41.818Z,34.72
2023-05-14T06:02:09.131Z,29.77
2023-05-14T06:04:36.081Z,29.75
2023-05-14T06:07:02.953Z,32.25
2023-05-14T06:09:29.837Z,32.08
2023-05-14T06:11:56.788Z,36.20
2023-05-14T06:14:23.698Z,34.20
2023-05-14T06:16:50.680Z,25.67
2023-05-14T06:19:18.454Z,33.58
2023-05-14T06:21:45.432Z,32.70
2023-05-14T06:24:13.370Z,28.30
2023-05-14T06:26:40.510Z,27.60
2023-05-14T06:29:07.621Z,22.90
2023-05-14T06:31:34.522Z,25.45
2023-05-14T06:34:01.519Z,31.85
2023-05-14T06:36:28.532Z,23.60
2023-05-14T06:38:55.571Z,28.42
2023-05-14T06:41:22.751Z,29.75
2023-05-14T06:43:49.707Z,28.25
2023-05-14T06:46:16.535Z,34.38
2023-05-14T06:48:43.595Z,32.35
2023-05-14T06:51:10.960Z,27.40
2023-05-14T06:53:37.903Z,26.35
2023-05-14T06:56:05.258Z,34.15
2023-05-14T06:58:32.401Z,29.20
2023-05-14T07:01:00.022Z,29.42
2023-05-14T07:03:27.292Z,26.70
2023-05-14T07:05:54.139Z,30.00
2023-05-14T07:08:21.098Z,25.10
2023-05-14T07:10:48.009Z,32.15
2023-05-14T07:13:14.983Z,26.27
2023-05-14T07:15:41.932Z,25.77
2023-05-14T07:18:08.900Z,21.25
2023-05-14T07:20:35.746Z,26.33
2023-05-14T07:23:02.728Z,27.63
2023-05-14T07:25:29.602Z,25.48
2023-05-14T07:27:56.556Z,22.80
2023-05-14T07:30:23.676Z,22.77
2023-05-14T07:32:50.807Z,24.67
2023-05-14T07:35:17.918Z,25.67
2023-05-14T07:37:44.901Z,20.95
2023-05-14T07:40:12.143Z,23.05
2023-05-14T07:42:39.061Z,22.15
2023-05-14T07:45:06.404Z,23.58
2023-05-14T07:47:33.679Z,23.45
2023-05-14T07:50:00.789Z,20.17
2023-05-14T07:52:27.808Z,21.20
2023-05-14T07:54:55.123Z,20.55
2023-05-14T07:57:22.465Z,24.10
2023-05-14T07:59:49.661Z,20.33
2023-05-14T08:02:17.107Z,24.15
2023-05-14T08:04:44.251Z,23.75
2023-05-14T08:07:11.410Z,21.98
2023-05-14T08:09:38.272Z,21.77
2023-05-14T08:12:07.472Z,27.85
2023-05-14T08:14:34.759Z,21.75
2023-05-14T08:17:01.828Z,23.05
2023-05-14T08:19:28.635Z,21.60
2023-05-14T08:21:55.587Z,20.38
2023-05-14T08:24:22.469Z,19.00
2023-05-14T08:26:49.389Z,18.75
2023-05-14T08:29:16.872Z,26.80
2023-05-14T08:31:44.027Z,23.40
2023-05-14T08:34:11.019Z,23.27
2023-05-14T08:36:39.134Z,23.23
2023-05-14T08:39:07.782Z,20.67
2023-05-14T08:41:35.361Z,18.50
2023-05-14T08:44:38.809Z,19.60
2023-05-14T08:47:06.975Z,17.33
2023-05-14T08:49:42.747Z,22.65
2023-05-14T08:52:10.714Z,17.30
2023-05-14T08:54:38.066Z,13.88
2023-05-14T08:57:06.121Z,26.25
2023-05-14T08:59:33.049Z,29.25
2023-05-14T09:02:02.847Z,15.50
2023-05-14T09:04:31.210Z,15.43
2023-05-14T09:07:01.355Z,17.15
2023-05-14T09:09:28.444Z,15.48
2023-05-14T09:11:55.293Z,15.80
2023-05-14T09:14:22.980Z,18.50
2023-05-14T09:16:51.452Z,17.27
2023-05-14T09:19:19.495Z,13.00
2023-05-14T09:21:47.903Z,15.05
2023-05-14T09:24:22.662Z,13.98
2023-05-14T09:26:57.688Z,19.75
2023-05-14T09:29:26.455Z,12.98
2023-05-14T09:31:54.156Z,15.05
2023-05-14T09:34:34.769Z,12.63
2023-05-14T09:37:04.514Z,14.68
2023-05-14T09:39:33.006Z,18.80
2023-05-14T09:42:00.289Z,13.48
2023-05-14T09:44:27.722Z,10.63
2023-05-14T09:46:55.106Z,14.20
2023-05-14T09:49:22.711Z,16.75
2023-05-14T09:51:50.383Z,15.48
2023-05-14T09:54:17.739Z,13.80
2023-05-14T09:56:45.154Z,13.88
2023-05-14T09:59:12.452Z,13.30
2023-05-14T10:01:42.576Z,22.60
2023-05-14T10:04:11.458Z,12.20
2023-05-14T10:06:39.964Z,16.35
2023-05-14T10:09:17.206Z,21.50
2023-05-14T10:11:49.858Z,19.15
2023-05-14T10:14:55.104Z,12.95
2023-05-14T10:17:23.983Z,16.38
2023-05-14T10:19:57.580Z,13.20
2023-05-14T10:22:29.926Z,15.07
2023-05-14T10:24:57.455Z,13.70
2023-05-14T10:27:25.003Z,12.43
2023-05-14T10:29:56.272Z,13.88
2023-05-14T10:32:25.712Z,13.75
2023-05-14T10:34:54.015Z,19.50
2023-05-14T10:37:26.416Z,19.55
2023-05-14T10:39:57.685Z,13.13
2023-05-14T10:42:36.163Z,15.55
2023-05-14T10:45:07.677Z,14.10
2023-05-14T10:47:36.852Z,15.88
2023-05-14T10:50:09.113Z,12.07
2023-05-14T10:52:36.619Z,14.90
2023-05-14T10:55:10.232Z,16.10
2023-05-14T10:57:40.448Z,20.50
2023-05-14T11:00:08.926Z,17.67
2023-05-14T11:02:37.508Z,15.77
2023-05-14T11:05:08.224Z,15.82
2023-05-14T11:07:37.969Z,10.60
2023-05-14T11:10:10.890Z,13.40
2023-05-14T11:12:40.739Z,15.70
2023-05-14T11:15:12.634Z,13.52
2023-05-14T11:17:41.478Z,9.48
2023-05-14T11:20:09.502Z,13.75
2023-05-14T11:22:38.116Z,14.90
2023-05-14T11:25:06.389Z,12.18
2023-05-14T11:27:39.173Z,12.10
2023-05-14T11:30:13.658Z,11.63
2023-05-14T11:32:41.424Z,14.37
2023-05-14T11:35:08.750Z,14.00
2023-05-14T11:37:35.729Z,13.43
2023-05-14T11:40:02.733Z,19.40
2023-05-14T11:42:29.670Z,17.63
2023-05-14T11:44:56.760Z,18.42
2023-05-14T11:47:23.745Z,12.60
2023-05-14T11:49:50.630Z,13.13
2023-05-14T11:52:19.538Z,15.48
2023-05-14T11:54:46.942Z,14.15
2023-05-14T11:57:18.133Z,15.10
2023-05-14T11:59:46.104Z,13.18
2023-05-14T12:02:14.655Z,14.35
2023-05-14T12:04:42.923Z,10.02
2023-05-14T12:07:12.036Z,12.95
2023-05-14T12:09:50.802Z,11.18
2023-05-14T12:12:20.720Z,9.48
2023-05-14T12:14:48.793Z,15.60
2023-05-14T12:17:18.063Z,11.98
2023-05-14T12:19:46.331Z,13.45
2023-05-14T12:22:16.358Z,15.35
2023-05-14T12:24:44.276Z,12.73
2023-05-14T12:27:11.955Z,11.60
2023-05-14T12:29:39.222Z,13.07
2023-05-14T12:32:12.181Z,11.05
2023-05-14T12:34:39.276Z,15.73
2023-05-14T12:37:07.002Z,11.32
2023-05-14T12:39:34.750Z,11.55
2023-05-14T12:42:01.747Z,12.13
2023-05-14T12:44:29.086Z,10.82
2023-05-14T12:46:56.250Z,9.55
2023-05-14T12:49:23.215Z,11.68
2023-05-14T12:51:52.654Z,8.00
2023-05-14T12:54:23.803Z,13.70
2023-05-14T12:56:50.926Z,13.00
2023-05-14T12:59:17.810Z,12.57
2023-05-14T13:01:44.763Z,13.85
2023-05-14T13:04:14.401Z,13.80
2023-05-14T13:06:41.540Z,11.15
2023-05-14T13:09:08.803Z,12.52
2023-05-14T13:11:35.815Z,10.80
2023-05-14T13:14:03.871Z,13.70
2023-05-14T13:16:31.349Z,11.32
2023-05-14T13:18:58.334Z,12.38
2023-05-14T13:21:25.404Z,10.95
2023-05-14T13:23:52.292Z,11.40
2023-05-14T13:26:19.215Z,13.38
2023-05-14T13:28:46.258Z,15.07
2023-05-14T13:31:16.831Z,13.50
2023-05-14T13:33:45.086Z,11.45
2023-05-14T13:36:14.334Z,16.13
2023-05-14T13:38:41.347Z,12.00
2023-05-14T13:41:08.501Z,10.45
2023-05-14T13:43:35.823Z,15.07
2023-05-14T13:46:04.235Z,11.73
2023-05-14T13:48:31.597Z,12.48
2023-05-14T13:50:58.772Z,12.02
2023-05-14T13:53:26.470Z,9.07
2023-05-14T13:56:02.126Z,16.02
2023-05-14T13:58:29.170Z,16.77
2023-05-14T14:00:56.583Z,12.02
2023-05-14T14:03:23.562Z,11.15
2023-05-14T14:05:51.664Z,13.88
2023-05-14T14:08:23.971Z,12.07
2023-05-14T14:10:54.596Z,13.40
2023-05-14T14:13:22.767Z,12.65
2023-05-14T14:15:50.246Z,13.35
2023-05-14T14:18:17.204Z,18.92
2023-05-14T14:20:44.176Z,14.38
2023-05-14T14:23:11.088Z,15.10
2023-05-14T14:25:37.927Z,15.48
2023-05-14T14:28:04.942Z,20.15
2023-05-14T14:30:32.784Z,14.68
2023-05-14T14:33:01.315Z,18.40
2023-05-14T14:35:28.358Z,15.90
2023-05-14T14:37:55.727Z,13.80
2023-05-14T14:40:23.994Z,13.98
2023-05-14T14:42:51.072Z,13.60
2023-05-14T14:45:18.201Z,11.13
2023-05-14T14:47:46.498Z,14.27
2023-05-14T14:50:13.844Z,15.90
2023-05-14T14:52:45.463Z,10.45
2023-05-14T14:55:13.084Z,15.27
2023-05-14T14:57:40.014Z,15.25
2023-05-14T15:00:07.540Z,10.13
2023-05-14T15:02:34.958Z,20.45
2023-05-14T15:05:02.067Z,12.65
2023-05-14T15:07:32.758Z,13.70
2023-05-14T15:09:59.852Z,18.65
2023-05-14T15:12:26.705Z,15.80
2023-05-14T15:14:53.593Z,14.40
2023-05-14T15:17:20.455Z,12.20
2023-05-14T15:19:47.562Z,14.68
2023-05-14T15:22:14.440Z,13.63
2023-05-14T15:24:41.339Z,13.32
2023-05-14T15:27:08.177Z,9.25
2023-05-14T15:29:35.050Z,16.10
2023-05-14T15:32:02.469Z,10.85
2023-05-14T15:34:29.512Z,12.02
2023-05-14T15:36:56.302Z,10.90
2023-05-14T15:39:23.210Z,9.10
2023-05-14T15:41:50.414Z,14.55
2023-05-14T15:44:17.352Z,10.40
2023-05-14T15:46:44.279Z,11.13
2023-05-14T15:49:11.331Z,8.25
2023-05-14T15:51:38.275Z,10.00
2023-05-14T15:54:05.286Z,10.70
2023-05-14T15:56:32.196Z,20.75
2023-05-14T15:58:59.166Z,12.70
2023-05-14T16:01:26.215Z,11.90
2023-05-14T16:03:53.413Z,12.35
2023-05-14T16:06:20.396Z,7.90
2023-05-14T16:08:47.527Z,10.25
2023-05-14T16:11:14.332Z,16.02
2023-05-14T16:13:41.657Z,10.30
2023-05-14T16:16:08.653Z,10.90
2023-05-14T16:18:35.718Z,10.68
2023-05-14T16:21:02.638Z,9.15
2023-05-14T16:23:29.742Z,11.45
2023-05-14T16:25:56.593Z,13.80
2023-05-14T16:28:23.710Z,9.07
2023-05-14T16:30:50.759Z,8.23
2023-05-14T16:33:17.693Z,10.45
2023-05-14T16:35:45.454Z,11.63
2023-05-14T16:38:12.412Z,7.57
2023-05-14T16:40:39.237Z,9.23
2023-05-14T16:43:06.431Z,9.98
2023-05-14T16:45:34.896Z,12.70
2023-05-14T16:48:01.847Z,9.55
2023-05-14T16:50:28.844Z,9.93
2023-05-14T16:52:56.004Z,9.10
2023-05-14T16:55:23.060Z,10.80
2023-05-14T16:57:50.273Z,9.00
2023-05-14T17:00:17.761Z,9.10
2023-05-14T17:02:44.753Z,7.63
2023-05-14T17:05:11.567Z,10.65
2023-05-14T17:07:39.276Z,7.38
2023-05-14T17:10:07.250Z,6.38
2023-05-14T17:12:34.317Z,9.20
2023-05-14T17:15:03.062Z,7.85
2023-05-14T17:17:32.693Z,8.68
2023-05-14T17:20:00.193Z,10.40
2023-05-14T17:22:27.455Z,7.80
2023-05-14T17:24:54.336Z,8.90
2023-05-14T17:27:21.296Z,8.10
2023-05-14T17:29:51.077Z,10.18
2023-05-14T17:32:18.581Z,11.10
2023-05-14T17:34:45.583Z,8.50
2023-05-14T17:37:12.619Z,6.93
2023-05-14T17:39:39.488Z,8.85
2023-05-14T17:42:06.981Z,7.60
2023-05-14T17:44:33.815Z,9.27
2023-05-14T17:47:00.953Z,9.23
2023-05-14T17:49:27.900Z,8.40
2023-05-14T17:51:54.843Z,9.45
2023-05-14T17:54:21.744Z,10.75
2023-05-14T17:56:51.033Z,8.43
2023-05-14T17:59:17.913Z,8.10
2023-05-14T18:01:44.941Z,10.52
2023-05-14T18:04:11.814Z,11.20
2023-05-14T18:06:38.935Z,13.98
2023-05-14T18:09:05.844Z,10.43
2023-05-14T18:11:33.975Z,10.63
2023-05-14T18:14:01.738Z,8.32
2023-05-14T18:16:29.257Z,11.57
2023-05-14T18:19:00.373Z,12.57
2023-05-14T18:21:27.380Z,14.13
2023-05-14T18:23:54.331Z,12.70
2023-05-14T18:26:22.117Z,14.52
2023-05-14T18:28:49.189Z,15.43
2023-05-14T18:31:16.141Z,11.98
2023-05-14T18:33:43.095Z,14.65
2023-05-14T18:36:10.076Z,12.93
2023-05-14T18:38:36.993Z,13.10
2023-05-14T18:41:03.989Z,11.55
2023-05-14T18:43:31.189Z,12.52
2023-05-14T18:45:58.974Z,13.73
2023-05-14T18:48:26.392Z,11.07
2023-05-14T18:50:53.409Z,13.18
2023-05-14T18:53:20.474Z,11.65
2023-05-14T18:55:47.371Z,13.23
2023-05-14T18:58:14.722Z,13.95
2023-05-14T19:00:41.664Z,13.25
2023-05-14T19:03:08.731Z,10.23
2023-05-14T19:05:35.822Z,13.70
2023-05-14T19:08:02.774Z,10.52
2023-05-14T19:10:29.763Z,16.35
2023-05-14T19:12:57.571Z,14.65
2023-05-14T19:15:25.135Z,12.82
2023-05-14T19:17:53.941Z,14.48
2023-05-14T19:20:21.034Z,13.40
2023-05-14T19:22:47.868Z,16.23
2023-05-14T19:25:14.926Z,13.40
2023-05-14T19:27:41.869Z,14.38
2023-05-14T19:30:09.205Z,15.20
2023-05-14T19:32:37.565Z,15.27
2023-05-14T19:35:07.980Z,18.45
2023-05-14T19:37:35.056Z,17.00
2023-05-14T19:40:01.941Z,17.55
2023-05-14T19:42:28.972Z,24.00
2023-05-14T19:44:55.969Z,18.75
2023-05-14T19:47:23.016Z,24.52
2023-05-14T19:49:49.893Z,19.95
2023-05-14T19:52:16.842Z,20.70
2023-05-14T19:54:43.725Z,20.38
2023-05-14T19:57:11.251Z,18.90
2023-05-14T19:59:39.218Z,21.38
2023-05-14T20:02:06.250Z,25.10
2023-05-14T20:04:33.816Z,22.83
2023-05-14T20:07:00.933Z,20.85
2023-05-14T20:09:27.731Z,27.83
2023-05-14T20:11:54.853Z,30.65
2023-05-14T20:14:21.658Z,33.65
2023-05-14T20:16:49.050Z,27.83
2023-05-14T20:19:16.396Z,31.23
2023-05-14T20:21:43.401Z,27.75
2023-05-14T20:24:10.275Z,22.75
2023-05-14T20:26:37.221Z,32.47
2023-05-14T20:29:04.025Z,26.92
2023-05-14T20:31:31.080Z,25.98
2023-05-14T20:33:57.971Z,23.85
2023-05-14T20:36:26.061Z,25.55
2023-05-14T20:38:52.998Z,26.80
2023-05-14T20:41:19.907Z,28.27
2023-05-14T20:43:46.700Z,24.88
2023-05-14T20:46:13.646Z,26.40
2023-05-14T20:48:40.586Z,26.27
2023-05-14T20:51:07.638Z,23.85
2023-05-14T20:53:34.720Z,22.98
2023-05-14T20:56:01.675Z,24.95
2023-05-14T20:58:28.806Z,27.50
2023-05-14T21:00:55.748Z,28.88
2023-05-14T21:03:22.757Z,29.80
2023-05-14T21:05:49.775Z,28.48
2023-05-14T21:08:16.854Z,25.67
2023-05-14T21:10:44.072Z,24.85
2023-05-14T21:13:10.874Z,25.10
2023-05-14T21:15:37.760Z,24.95
2023-05-14T21:18:04.702Z,28.42
2023-05-14T21:20:31.605Z,31.40
2023-05-14T21:22:58.446Z,28.45
2023-05-14T21:25:25.677Z,28.20
2023-05-14T21:27:52.678Z,31.30
2023-05-14T21:30:19.683Z,32.65
2023-05-14T21:32:46.523Z,28.65
2023-05-14T21:35:13.453Z,26.85
2023-05-14T21:37:40.520Z,26.45
2023-05-14T21:40:12.581Z,28.02
2023-05-14T21:42:40.715Z,35.70
2023-05-14T21:45:08.002Z,29.73
2023-05-14T21:47:35.166Z,35.25
2023-05-14T21:50:02.092Z,33.95
2023-05-14T21:52:29.063Z,38.25
2023-05-14T21:54:55.988Z,40.25
2023-05-14T21:57:22.954Z,37.33
2023-05-14T21:59:49.802Z,32.58
2023-05-14T22:02:16.903Z,34.60
2023-05-14T22:04:43.832Z,34.72
2023-05-14T22:07:11.016Z,32.80
2023-05-14T22:09:37.985Z,32.55
2023-05-14T22:12:05.872Z,34.50
2023-05-14T22:14:32.974Z,31.85
2023-05-14T22:16:59.979Z,29.08
2023-05-14T22:19:27.841Z,34.38
2023-05-14T22:21:54.844Z,31.67
2023-05-14T22:24:21.788Z,31.08
2023-05-14T22:26:48.744Z,38.85
2023-05-14T22:29:15.529Z,36.42
2023-05-14T22:31:42.470Z,32.75
2023-05-14T22:34:09.345Z,34.97
2023-05-14T22:36:36.475Z,35.65
2023-05-14T22:39:03.463Z,37.67
2023-05-14T22:41:30.768Z,37.50
2023-05-14T22:43:57.614Z,41.25
2023-05-14T22:46:24.644Z,39.72
2023-05-14T22:48:51.619Z,44.92
2023-05-14T22:51:18.505Z,39.10
2023-05-14T22:53:47.076Z,40.65
2023-05-14T22:56:14.068Z,38.22
2023-05-14T22:58:40.967Z,44.78
2023-05-14T23:01:07.844Z,41.00
2023-05-14T23:03:34.703Z,42.42
2023-05-14T23:06:01.648Z,33.83
2023-05-14T23:08:28.476Z,46.30
2023-05-14T23:10:55.396Z,38.60
2023-05-14T23:13:22.254Z,37.45
2023-05-14T23:15:49.318Z,36.75
2023-05-14T23:18:16.327Z,35.80
2023-05-14T23:20:43.840Z,45.97
2023-05-14T23:23:11.056Z,49.55
2023-05-14T23:25:38.162Z,45.42
2023-05-14T23:28:05.057Z,41.55
2023-05-14T23:30:31.986Z,43.88
2023-05-14T23:32:58.820Z,40.55
2023-05-14T23:35:26.049Z,47.10
2023-05-14T23:37:55.145Z,39.95
2023-05-14T23:40:22.114Z,50.53
2023-05-14T23:42:48.949Z,49.78
2023-05-14T23:45:16.010Z,35.75
2023-05-14T23:47:42.974Z,40.85
2023-05-14T23:50:10.080Z,45.10
2023-05-14T23:52:37.054Z,40.78
2023-05-14T23:55:04.539Z,41.03
2023-05-14T23:57:31.400Z,43.25
2023-05-14T23:59:58.821Z,46.40
